APL Coral — WDF6832 — position and weather

sailwx.info

Track history (hours):
 
Tides and Currents Weather Stations Pressure Air Temp Water Temp Dewpoint Dewpoint Depression Visibility Wind Speed Wind Dir Waves Ship Positions

APL Coral

Owner: APL Maritime Ltd., Bethesda, MD. More information available from US FCC via Universal Licensing System and Coast Guard Vessel Documentation Center.

Last reported at 2015-Mar-04 03:33 UTC. Time now 2015-Mar-04 04:17 UTC.
Position N 32°08' W 081°08'.

Length 275 m; draft 12 m.

Type: Cargo ship. MMSI: 367478280.

Date/timePositionNaut miles runAvg speedWind from/ knotsBaromVisibWave heightAir tempDewpointWater temp
2015-Mar-04 03:33N 32°08' W 081°08'0 0.0
2015-Mar-04 02:33N 32°08' W 081°08'0 0.0
2015-Mar-04 01:33N 32°08' W 081°08'0 0.0
2015-Mar-04 00:33N 32°08' W 081°08'0 0.0
2015-Mar-03 23:33N 32°08' W 081°08'0 0.0
2015-Mar-03 22:33N 32°08' W 081°08'0 0.0
2015-Mar-03 21:33N 32°08' W 081°08'0 0.0
2015-Mar-03 20:33N 32°08' W 081°08'0 0.0
2015-Mar-03 19:33N 32°08' W 081°08'0 0.0
2015-Mar-03 18:33N 32°08' W 081°08'0 0.0
2015-Mar-03 17:33N 32°08' W 081°08'0 0.0
2015-Mar-03 16:33N 32°08' W 081°08'0 0.0
2015-Mar-03 15:33N 32°08' W 081°08'0 0.0
2015-Mar-03 14:33N 32°08' W 081°08'0 0.0
2015-Mar-03 13:33N 32°08' W 081°08'0 0.0
2015-Mar-03 12:33N 32°08' W 081°08'0 0.0
2015-Mar-03 11:33N 32°08' W 081°08'0 0.0
2015-Mar-03 10:33N 32°08' W 081°08'0 0.0
2015-Mar-03 09:33N 32°08' W 081°08'0 0.0
2015-Mar-03 08:33N 32°08' W 081°08'0 0.0
2015-Mar-03 07:33N 32°08' W 081°08'0 0.0
2015-Mar-03 06:33N 32°08' W 081°08'0 0.0
2015-Mar-03 05:33N 32°08' W 081°08'0 0.0
2015-Mar-03 04:33N 32°08' W 081°08'0 0.0
2015-Mar-03 03:33N 32°08' W 081°08'0 0.2
2015-Mar-03 02:33N 32°08' W 081°08'4 3.9
2015-Mar-03 01:33N 32°05' W 081°05'6 6.1
2015-Mar-03 00:32N 32°04' W 080°58'1212.1
2015-Mar-02 23:33N 31°59' W 080°45'1010.3
2015-Mar-02 22:33N 31°54' W 080°35'2 1.0
2015-Mar-02 20:17N 31°54' W 080°32'0 0.0
2015-Mar-02 19:21N 31°54' W 080°32'0 0.1
2015-Mar-02 17:26N 31°54' W 080°32'0 0.2
2015-Mar-02 16:32N 31°54' W 080°32'0 0.0
2015-Mar-02 15:33N 31°54' W 080°32'0 0.0
2015-Mar-02 14:32N 31°54' W 080°32'0 0.0
2015-Mar-02 13:33N 31°54' W 080°32'0 0.1
2015-Mar-02 12:29N 31°54' W 080°32'0 0.2
2015-Mar-02 11:26N 31°54' W 080°32'0 0.1
2015-Mar-02 10:11N 31°54' W 080°32'3 4.2
2015-Mar-02 09:33N 31°55' W 080°29'10 8.6
2015-Mar-02 08:26N 31°58' W 080°19'9 9.6
2015-Mar-02 07:32N 32°01' W 080°09'14419.1
2015-Mar-02 00:00N 33°06' W 077°36'41017.9 100 / 241026.010.8 2.021.017.822.0
2015-Mar-01 01:07N 39°15' W 073°54'1520.0
2015-Mar-01 00:23N 39°29' W 073°53'1619.8
2015-Feb-28 23:33N 39°45' W 073°52'1717.2
2015-Feb-28 22:33N 40°03' W 073°51'1510.7
2015-Feb-28 21:11N 40°17' W 073°49'7 9.5
2015-Feb-28 20:24N 40°25' W 073°49'10 9.3
2015-Feb-28 19:18N 40°31' W 073°59'912.1
2015-Feb-28 18:34N 40°39' W 074°05'3 3.1
2015-Feb-28 17:34N 40°40' W 074°08'0 0.1
2015-Feb-28 16:32N 40°40' W 074°08'0 0.0
2015-Feb-28 15:32N 40°40' W 074°08'0 0.0
2015-Feb-28 14:29N 40°40' W 074°08'0 0.0
2015-Feb-28 13:29N 40°40' W 074°08'0 0.0
2015-Feb-28 12:32N 40°40' W 074°08'0 0.0
2015-Feb-28 11:32N 40°40' W 074°09'0 0.0
2015-Feb-28 10:29N 40°40' W 074°09'0 0.0
2015-Feb-28 09:32N 40°40' W 074°09'0 0.0
2015-Feb-28 08:32N 40°40' W 074°08'0 0.0
2015-Feb-28 07:29N 40°40' W 074°08'0 0.0
2015-Feb-28 06:32N 40°40' W 074°09'0 0.0
2015-Feb-28 05:32N 40°40' W 074°08'0 0.0
2015-Feb-28 04:32N 40°40' W 074°08'0 0.0
2015-Feb-28 03:32N 40°40' W 074°09'0 0.0
2015-Feb-28 02:32N 40°40' W 074°08'0 0.0
2015-Feb-28 01:32N 40°40' W 074°09'0 0.0
2015-Feb-28 00:26N 40°40' W 074°09'0 0.0
2015-Feb-27 23:23N 40°40' W 074°09'0 0.0
2015-Feb-27 22:29N 40°40' W 074°08'0 0.0
2015-Feb-27 21:32N 40°40' W 074°08'0 0.0
2015-Feb-27 20:29N 40°40' W 074°09'0 0.0
2015-Feb-27 19:32N 40°40' W 074°09'0 0.0
2015-Feb-27 18:32N 40°40' W 074°09'0 0.2
2015-Feb-27 17:33N 40°40' W 074°09'4 3.7
2015-Feb-27 16:33N 40°39' W 074°04'1110.5
2015-Feb-27 15:33N 40°30' W 073°57'9 8.8
2015-Feb-27 14:33N 40°27' W 073°46'16 7.9
2015-Feb-27 12:31N 40°28' W 073°25'2914.9
2015-Feb-27 10:32N 40°30' W 072°46'1818.3
2015-Feb-27 09:33N 40°31' W 072°23'1818.3
2015-Feb-27 08:33N 40°31' W 071°59'1818.4
2015-Feb-27 07:33N 40°32' W 071°34'1918.6
2015-Feb-27 06:33N 40°32' W 071°10'1918.7
2015-Feb-27 05:32N 40°33' W 070°45'1918.8
2015-Feb-27 04:33N 40°33' W 070°21'1918.8
2015-Feb-27 03:34N 40°34' W 069°56'  
2015-Feb-24 06:00N 42°00' W 054°48'43818.2 270 / 15999.5 5.4 10.5 9.515.0
2015-Feb-23 06:00N 41°48' W 045°00'33218.4 180 / 201033.0 2.012.0 4.319.0
2015-Feb-22 12:00N 41°00' W 037°42'   270 / 301031.010.8 2.010.9 9.517.0
Track history (hours):
 
Tides and Currents Weather Stations Pressure Air Temp Water Temp Dewpoint Dewpoint Depression Visibility Wind Speed Wind Dir Waves Ship Positions

APL Coral

Owner: APL Maritime Ltd., Bethesda, MD. More information available from US FCC via Universal Licensing System and Coast Guard Vessel Documentation Center.

Last reported at 2015-Mar-04 03:33 UTC. Time now 2015-Mar-04 04:17 UTC.
Position N 32°08' W 081°08'.

Length 275 m; draft 12 m.

Type: Cargo ship. MMSI: 367478280.

Date/timePositionNaut miles runAvg speedWind from/ knotsBaromVisibWave heightAir tempDewpointWater temp
2015-Mar-04 03:33N 32°08' W 081°08'0 0.0
2015-Mar-04 02:33N 32°08' W 081°08'0 0.0
2015-Mar-04 01:33N 32°08' W 081°08'0 0.0
2015-Mar-04 00:33N 32°08' W 081°08'0 0.0
2015-Mar-03 23:33N 32°08' W 081°08'0 0.0
2015-Mar-03 22:33N 32°08' W 081°08'0 0.0
2015-Mar-03 21:33N 32°08' W 081°08'0 0.0
2015-Mar-03 20:33N 32°08' W 081°08'0 0.0
2015-Mar-03 19:33N 32°08' W 081°08'0 0.0
2015-Mar-03 18:33N 32°08' W 081°08'0 0.0
2015-Mar-03 17:33N 32°08' W 081°08'0 0.0
2015-Mar-03 16:33N 32°08' W 081°08'0 0.0
2015-Mar-03 15:33N 32°08' W 081°08'0 0.0
2015-Mar-03 14:33N 32°08' W 081°08'0 0.0
2015-Mar-03 13:33N 32°08' W 081°08'0 0.0
2015-Mar-03 12:33N 32°08' W 081°08'0 0.0
2015-Mar-03 11:33N 32°08' W 081°08'0 0.0
2015-Mar-03 10:33N 32°08' W 081°08'0 0.0
2015-Mar-03 09:33N 32°08' W 081°08'0 0.0
2015-Mar-03 08:33N 32°08' W 081°08'0 0.0
2015-Mar-03 07:33N 32°08' W 081°08'0 0.0
2015-Mar-03 06:33N 32°08' W 081°08'0 0.0
2015-Mar-03 05:33N 32°08' W 081°08'0 0.0
2015-Mar-03 04:33N 32°08' W 081°08'0 0.0
2015-Mar-03 03:33N 32°08' W 081°08'0 0.2
2015-Mar-03 02:33N 32°08' W 081°08'4 3.9
2015-Mar-03 01:33N 32°05' W 081°05'6 6.1
2015-Mar-03 00:32N 32°04' W 080°58'1212.1
2015-Mar-02 23:33N 31°59' W 080°45'1010.3
2015-Mar-02 22:33N 31°54' W 080°35'2 1.0
2015-Mar-02 20:17N 31°54' W 080°32'0 0.0
2015-Mar-02 19:21N 31°54' W 080°32'0 0.1
2015-Mar-02 17:26N 31°54' W 080°32'0 0.2
2015-Mar-02 16:32N 31°54' W 080°32'0 0.0
2015-Mar-02 15:33N 31°54' W 080°32'0 0.0
2015-Mar-02 14:32N 31°54' W 080°32'0 0.0
2015-Mar-02 13:33N 31°54' W 080°32'0 0.1
2015-Mar-02 12:29N 31°54' W 080°32'0 0.2
2015-Mar-02 11:26N 31°54' W 080°32'0 0.1
2015-Mar-02 10:11N 31°54' W 080°32'3 4.2
2015-Mar-02 09:33N 31°55' W 080°29'10 8.6
2015-Mar-02 08:26N 31°58' W 080°19'9 9.6
2015-Mar-02 07:32N 32°01' W 080°09'14419.1
2015-Mar-02 00:00N 33°06' W 077°36'41017.9 100 / 241026.010.8 2.021.017.822.0
2015-Mar-01 01:07N 39°15' W 073°54'1520.0
2015-Mar-01 00:23N 39°29' W 073°53'1619.8
2015-Feb-28 23:33N 39°45' W 073°52'1717.2
2015-Feb-28 22:33N 40°03' W 073°51'1510.7
2015-Feb-28 21:11N 40°17' W 073°49'7 9.5
2015-Feb-28 20:24N 40°25' W 073°49'10 9.3
2015-Feb-28 19:18N 40°31' W 073°59'912.1
2015-Feb-28 18:34N 40°39' W 074°05'3 3.1
2015-Feb-28 17:34N 40°40' W 074°08'0 0.1
2015-Feb-28 16:32N 40°40' W 074°08'0 0.0
2015-Feb-28 15:32N 40°40' W 074°08'0 0.0
2015-Feb-28 14:29N 40°40' W 074°08'0 0.0
2015-Feb-28 13:29N 40°40' W 074°08'0 0.0
2015-Feb-28 12:32N 40°40' W 074°08'0 0.0
2015-Feb-28 11:32N 40°40' W 074°09'0 0.0
2015-Feb-28 10:29N 40°40' W 074°09'0 0.0
2015-Feb-28 09:32N 40°40' W 074°09'0 0.0
2015-Feb-28 08:32N 40°40' W 074°08'0 0.0
2015-Feb-28 07:29N 40°40' W 074°08'0 0.0
2015-Feb-28 06:32N 40°40' W 074°09'0 0.0
2015-Feb-28 05:32N 40°40' W 074°08'0 0.0
2015-Feb-28 04:32N 40°40' W 074°08'0 0.0
2015-Feb-28 03:32N 40°40' W 074°09'0 0.0
2015-Feb-28 02:32N 40°40' W 074°08'0 0.0
2015-Feb-28 01:32N 40°40' W 074°09'0 0.0
2015-Feb-28 00:26N 40°40' W 074°09'0 0.0
2015-Feb-27 23:23N 40°40' W 074°09'0 0.0
2015-Feb-27 22:29N 40°40' W 074°08'0 0.0
2015-Feb-27 21:32N 40°40' W 074°08'0 0.0
2015-Feb-27 20:29N 40°40' W 074°09'0 0.0
2015-Feb-27 19:32N 40°40' W 074°09'0 0.0
2015-Feb-27 18:32N 40°40' W 074°09'0 0.2
2015-Feb-27 17:33N 40°40' W 074°09'4 3.7
2015-Feb-27 16:33N 40°39' W 074°04'1110.5
2015-Feb-27 15:33N 40°30' W 073°57'9 8.8
2015-Feb-27 14:33N 40°27' W 073°46'16 7.9
2015-Feb-27 12:31N 40°28' W 073°25'2914.9
2015-Feb-27 10:32N 40°30' W 072°46'1818.3
2015-Feb-27 09:33N 40°31' W 072°23'1818.3
2015-Feb-27 08:33N 40°31' W 071°59'1818.4
2015-Feb-27 07:33N 40°32' W 071°34'1918.6
2015-Feb-27 06:33N 40°32' W 071°10'1918.7
2015-Feb-27 05:32N 40°33' W 070°45'1918.8
2015-Feb-27 04:33N 40°33' W 070°21'1918.8
2015-Feb-27 03:34N 40°34' W 069°56'  
2015-Feb-24 06:00N 42°00' W 054°48'43818.2 270 / 15999.5 5.4 10.5 9.515.0
2015-Feb-23 06:00N 41°48' W 045°00'33218.4 180 / 201033.0 2.012.0 4.319.0
2015-Feb-22 12:00N 41°00' W 037°42'   270 / 301031.010.8 2.010.9 9.517.0

Dump ship's entire track history